Time;durP1;ratioP1;P1;durP2;ratioP2;P2;SDS_P1;SDS_P2;PMS_P1;PMS_P2;Temp;Humidity;BMP_temperature;BMP_pressure;BME280_temperature;BME280_humidity;BME280_pressure;Samples;Min_cycle;Max_cycle;Signal;HPM_P1;HPM_P2
2021/09/01 00:00:08;;;;;;;4.28;2.30;;;;;;;;;;5058821;28;20076;-66
2021/09/01 00:02:58;;;;;;;4.50;2.70;;;;;;;;;;5059152;28;20051;-66
2021/09/01 00:05:24;;;;;;;3.97;2.20;;;;;;;;;;5058725;28;20076;-66
2021/09/01 00:07:50;;;;;;;3.63;2.35;;;;;;;;;;5055774;28;20099;-65
2021/09/01 00:10:18;;;;;;;6.20;2.67;;;;;;;;;;5056811;28;20130;-66
2021/09/01 00:12:44;;;;;;;3.22;2.20;;;;;;;;;;5068478;28;20075;-66
2021/09/01 00:15:12;;;;;;;4.00;2.17;;;;;;;;;;5062026;28;20056;-66
2021/09/01 00:17:38;;;;;;;7.35;2.17;;;;;;;;;;5058197;28;20094;-65
2021/09/01 00:20:07;;;;;;;5.10;2.38;;;;;;;;;;5057349;28;20060;-66
2021/09/01 00:22:34;;;;;;;4.80;2.50;;;;;;;;;;5055411;28;20478;-67
2021/09/01 00:25:00;;;;;;;4.80;2.03;;;;;;;;;;5069449;28;20079;-66
2021/09/01 00:27:26;;;;;;;4.18;2.13;;;;;;;;;;5059659;28;20134;-66
2021/09/01 00:29:53;;;;;;;5.30;2.25;;;;;;;;;;5058319;28;20060;-66
2021/09/01 00:32:19;;;;;;;5.32;2.30;;;;;;;;;;5058209;28;20487;-66
2021/09/01 00:34:46;;;;;;;4.45;2.22;;;;;;;;;;5054809;28;20127;-65
2021/09/01 00:37:12;;;;;;;3.92;2.25;;;;;;;;;;5056961;28;20048;-66
2021/09/01 00:39:39;;;;;;;3.97;2.22;;;;;;;;;;5058253;28;20049;-66
2021/09/01 00:42:09;;;;;;;8.32;3.50;;;;;;;;;;5057967;28;20410;-66
2021/09/01 00:44:36;;;;;;;4.30;2.22;;;;;;;;;;5058044;28;20475;-63
2021/09/01 00:47:03;;;;;;;4.07;2.30;;;;;;;;;;5056464;28;20071;-66
2021/09/01 00:49:30;;;;;;;4.72;2.28;;;;;;;;;;5055111;28;20077;-66
2021/09/01 00:51:56;;;;;;;4.90;2.90;;;;;;;;;;5057672;28;20048;-65
2021/09/01 00:54:24;;;;;;;7.90;3.35;;;;;;;;;;5057793;28;20098;-66
2021/09/01 00:56:55;;;;;;;4.32;2.53;;;;;;;;;;5058676;28;20132;-66
2021/09/01 00:59:24;;;;;;;3.97;2.50;;;;;;;;;;5059214;28;20174;-66
2021/09/01 01:01:51;;;;;;;6.18;2.80;;;;;;;;;;5055171;28;20487;-65
2021/09/01 01:04:18;;;;;;;4.22;2.38;;;;;;;;;;5068885;28;20079;-66
2021/09/01 01:06:44;;;;;;;3.63;2.05;;;;;;;;;;5064997;28;20044;-65
2021/09/01 01:09:10;;;;;;;2.53;1.58;;;;;;;;;;5063204;28;20064;-66
2021/09/01 01:11:38;;;;;;;4.03;2.25;;;;;;;;;;5057605;28;20075;-65
2021/09/01 01:14:04;;;;;;;3.90;2.35;;;;;;;;;;5056629;28;20041;-64
2021/09/01 01:16:30;;;;;;;4.95;2.05;;;;;;;;;;5054024;28;20053;-64
2021/09/01 01:18:59;;;;;;;6.05;2.08;;;;;;;;;;5057334;28;20095;-65
2021/09/01 01:21:29;;;;;;;5.15;2.63;;;;;;;;;;5057374;28;20067;-65
2021/09/01 01:23:56;;;;;;;2.50;1.30;;;;;;;;;;5057129;28;20068;-65
2021/09/01 01:26:22;;;;;;;3.97;2.50;;;;;;;;;;5055584;28;20513;-64
2021/09/01 01:28:50;;;;;;;5.95;2.83;;;;;;;;;;5068337;28;20041;-64
2021/09/01 01:31:16;;;;;;;3.53;2.17;;;;;;;;;;5055240;28;20689;-63
2021/09/01 01:33:43;;;;;;;3.28;1.95;;;;;;;;;;5067048;28;20586;-64
2021/09/01 01:36:09;;;;;;;2.72;2.00;;;;;;;;;;5061152;28;20398;-64
2021/09/01 01:38:35;;;;;;;3.33;2.10;;;;;;;;;;5058768;28;20045;-64
2021/09/01 01:41:02;;;;;;;3.88;1.90;;;;;;;;;;5054780;28;20049;-64
2021/09/01 01:43:31;;;;;;;3.30;2.30;;;;;;;;;;5069204;28;20051;-63
2021/09/01 01:45:57;;;;;;;3.05;1.88;;;;;;;;;;5056857;28;20045;-65
2021/09/01 01:48:24;;;;;;;5.78;2.83;;;;;;;;;;5057337;28;20106;-63
2021/09/01 01:50:50;;;;;;;5.63;2.63;;;;;;;;;;5057328;28;20497;-63
2021/09/01 01:53:16;;;;;;;6.68;2.33;;;;;;;;;;5057023;28;20391;-65
2021/09/01 01:55:43;;;;;;;4.70;2.30;;;;;;;;;;5053037;28;20086;-64
2021/09/01 01:58:09;;;;;;;5.20;2.35;;;;;;;;;;5066274;28;20490;-64
2021/09/01 02:00:36;;;;;;;3.95;2.42;;;;;;;;;;5056642;28;20041;-64
2021/09/01 02:03:03;;;;;;;4.05;2.60;;;;;;;;;;5057077;28;20071;-64
2021/09/01 02:05:29;;;;;;;4.80;2.45;;;;;;;;;;5057077;28;20048;-64
2021/09/01 02:07:55;;;;;;;4.93;2.95;;;;;;;;;;5054701;28;20049;-64
2021/09/01 02:10:22;;;;;;;3.90;2.40;;;;;;;;;;5054718;28;20072;-64
2021/09/01 02:12:49;;;;;;;7.28;2.55;;;;;;;;;;5056751;28;20075;-63
2021/09/01 02:15:15;;;;;;;4.28;3.28;;;;;;;;;;5056950;28;20065;-63
2021/09/01 02:17:42;;;;;;;5.22;2.08;;;;;;;;;;5056794;28;20136;-64
2021/09/01 02:20:10;;;;;;;4.07;2.50;;;;;;;;;;5054258;28;20045;-64
2021/09/01 02:22:36;;;;;;;6.22;2.97;;;;;;;;;;5068789;28;20394;-63
2021/09/01 02:25:03;;;;;;;4.57;2.63;;;;;;;;;;5066022;28;20130;-64
2021/09/01 02:27:29;;;;;;;7.03;2.55;;;;;;;;;;5062375;28;20055;-64
2021/09/01 02:29:57;;;;;;;4.07;2.45;;;;;;;;;;5059024;28;20036;-64
2021/09/01 02:32:23;;;;;;;7.25;3.13;;;;;;;;;;5067149;28;20095;-64
2021/09/01 02:34:49;;;;;;;3.83;2.35;;;;;;;;;;5053556;28;20041;-67
2021/09/01 02:37:16;;;;;;;4.53;2.58;;;;;;;;;;5054626;28;20045;-63
2021/09/01 02:39:42;;;;;;;5.00;2.75;;;;;;;;;;5058327;28;20132;-62
2021/09/01 02:42:09;;;;;;;4.25;2.75;;;;;;;;;;5060354;28;20049;-63
2021/09/01 02:44:35;;;;;;;4.75;2.35;;;;;;;;;;5062135;28;20106;-63
2021/09/01 02:47:01;;;;;;;5.10;2.72;;;;;;;;;;5058063;28;20083;-64
2021/09/01 02:49:28;;;;;;;4.75;2.78;;;;;;;;;;5072316;28;20502;-63
2021/09/01 02:51:54;;;;;;;3.70;2.40;;;;;;;;;;5059745;28;20041;-63
2021/09/01 02:54:21;;;;;;;5.05;2.40;;;;;;;;;;5060319;28;20082;-63
2021/09/01 02:56:47;;;;;;;6.82;2.88;;;;;;;;;;5061006;28;20453;-63
2021/09/01 02:59:13;;;;;;;5.00;2.40;;;;;;;;;;5064341;28;20110;-63
2021/09/01 03:01:40;;;;;;;4.32;2.67;;;;;;;;;;5066039;28;20454;-63
2021/09/01 03:04:06;;;;;;;3.38;2.20;;;;;;;;;;5059732;28;20120;-63
2021/09/01 03:06:32;;;;;;;4.25;2.60;;;;;;;;;;5059644;28;20049;-63
2021/09/01 03:08:59;;;;;;;3.75;2.20;;;;;;;;;;5060246;28;20107;-63
2021/09/01 03:11:25;;;;;;;4.05;2.47;;;;;;;;;;5060054;28;20119;-62
2021/09/01 03:13:51;;;;;;;4.50;2.78;;;;;;;;;;5056909;28;20044;-62
2021/09/01 03:16:18;;;;;;;3.70;2.17;;;;;;;;;;5056849;28;20503;-63
2021/09/01 03:18:44;;;;;;;5.35;2.83;;;;;;;;;;5069016;28;20048;-64
2021/09/01 03:21:11;;;;;;;5.40;2.85;;;;;;;;;;5060985;28;20065;-63
2021/09/01 03:23:37;;;;;;;6.53;2.72;;;;;;;;;;5060067;28;20060;-63
2021/09/01 03:26:04;;;;;;;5.35;3.10;;;;;;;;;;5070984;28;20067;-63
2021/09/01 03:28:31;;;;;;;4.10;2.53;;;;;;;;;;5056026;28;20045;-63
2021/09/01 03:30:57;;;;;;;4.15;2.55;;;;;;;;;;5058702;28;20068;-63
2021/09/01 03:33:23;;;;;;;4.68;2.53;;;;;;;;;;5058946;28;20123;-63
2021/09/01 03:35:50;;;;;;;6.45;2.65;;;;;;;;;;5059186;28;20395;-63
2021/09/01 03:38:16;;;;;;;4.28;2.67;;;;;;;;;;5056803;28;20119;-63
2021/09/01 03:40:42;;;;;;;4.38;2.97;;;;;;;;;;5070916;28;20073;-67
2021/09/01 03:43:09;;;;;;;6.07;3.40;;;;;;;;;;5059101;28;20045;-63
2021/09/01 03:45:36;;;;;;;4.38;2.70;;;;;;;;;;5059185;28;20068;-64
2021/09/01 03:48:03;;;;;;;4.47;3.38;;;;;;;;;;5059254;28;20498;-64
2021/09/01 03:50:29;;;;;;;5.68;3.15;;;;;;;;;;5059399;28;20453;-63
2021/09/01 03:52:56;;;;;;;5.97;3.00;;;;;;;;;;5055868;28;20071;-63
2021/09/01 03:55:22;;;;;;;4.00;2.60;;;;;;;;;;5056781;28;20049;-63
2021/09/01 03:57:48;;;;;;;5.07;3.17;;;;;;;;;;5059231;28;20460;-63
2021/09/01 04:00:15;;;;;;;4.47;2.60;;;;;;;;;;5060969;28;20040;-64
2021/09/01 04:02:41;;;;;;;5.25;3.30;;;;;;;;;;5065121;28;20091;-63
2021/09/01 04:05:08;;;;;;;6.10;3.35;;;;;;;;;;5056248;28;20114;-62
2021/09/01 04:07:34;;;;;;;8.07;3.95;;;;;;;;;;5071031;28;20061;-62
2021/09/01 04:10:01;;;;;;;5.45;2.90;;;;;;;;;;5058347;28;20513;-63
2021/09/01 04:12:27;;;;;;;6.65;3.05;;;;;;;;;;5058748;28;20102;-62
2021/09/01 04:14:53;;;;;;;8.38;3.80;;;;;;;;;;5056699;28;20087;-62
2021/09/01 04:17:20;;;;;;;7.05;3.78;;;;;;;;;;5066646;28;20060;-64
2021/09/01 04:19:46;;;;;;;7.20;3.55;;;;;;;;;;5070353;28;20048;-65
2021/09/01 04:22:13;;;;;;;6.72;3.50;;;;;;;;;;5057154;28;20080;-63
2021/09/01 04:24:39;;;;;;;7.82;3.33;;;;;;;;;;5058764;28;20509;-64
2021/09/01 04:27:06;;;;;;;7.18;3.63;;;;;;;;;;5058571;28;20051;-64
2021/09/01 04:29:32;;;;;;;6.47;3.38;;;;;;;;;;5058556;28;20127;-64
2021/09/01 04:31:58;;;;;;;6.55;3.67;;;;;;;;;;5056396;28;20071;-64
2021/09/01 04:34:25;;;;;;;6.22;3.60;;;;;;;;;;5062492;28;20106;-64
2021/09/01 04:36:51;;;;;;;8.90;4.57;;;;;;;;;;5068854;28;20063;-64
2021/09/01 04:39:17;;;;;;;8.13;4.07;;;;;;;;;;5060841;28;20048;-64
2021/09/01 04:41:44;;;;;;;7.93;3.72;;;;;;;;;;5058255;28;20483;-63
2021/09/01 04:44:10;;;;;;;6.20;3.70;;;;;;;;;;5057873;28;20572;-65
2021/09/01 04:46:36;;;;;;;9.85;4.20;;;;;;;;;;5053909;28;20041;-64
2021/09/01 04:49:03;;;;;;;8.23;4.72;;;;;;;;;;5057849;28;20487;-64
2021/09/01 04:51:29;;;;;;;7.60;4.85;;;;;;;;;;5057973;28;20041;-64
2021/09/01 04:53:55;;;;;;;9.63;4.65;;;;;;;;;;5057918;28;20040;-64
2021/09/01 04:56:22;;;;;;;10.65;5.30;;;;;;;;;;5055206;28;20053;-64
2021/09/01 04:58:48;;;;;;;11.20;5.80;;;;;;;;;;5063787;28;20134;-63
2021/09/01 05:01:14;;;;;;;16.23;5.93;;;;;;;;;;5055909;28;20045;-64
2021/09/01 05:03:41;;;;;;;15.02;6.30;;;;;;;;;;5058445;28;20180;-63
2021/09/01 05:06:07;;;;;;;15.48;6.32;;;;;;;;;;5057703;28;20065;-63
2021/09/01 05:08:33;;;;;;;8.27;4.78;;;;;;;;;;5058119;28;20051;-64
2021/09/01 05:11:00;;;;;;;18.42;7.30;;;;;;;;;;5067580;28;20040;-64
2021/09/01 05:13:26;;;;;;;14.40;7.38;;;;;;;;;;5059100;28;20069;-63
2021/09/01 05:15:52;;;;;;;10.55;6.95;;;;;;;;;;5063395;28;20037;-63
2021/09/01 05:18:19;;;;;;;12.43;5.93;;;;;;;;;;5065738;28;20482;-64
2021/09/01 05:20:47;;;;;;;10.57;6.28;;;;;;;;;;5064699;28;20072;-63
2021/09/01 05:23:16;;;;;;;14.07;6.57;;;;;;;;;;5059534;28;20095;-66
2021/09/01 05:25:42;;;;;;;14.77;7.25;;;;;;;;;;5064420;28;20040;-64
2021/09/01 05:28:11;;;;;;;13.98;6.80;;;;;;;;;;5060086;28;20068;-65
2021/09/01 05:30:38;;;;;;;17.23;7.13;;;;;;;;;;5066050;28;20509;-64
2021/09/01 05:33:05;;;;;;;11.23;7.20;;;;;;;;;;5065789;28;20059;-65
2021/09/01 05:35:31;;;;;;;14.48;7.25;;;;;;;;;;5055119;28;20069;-64
2021/09/01 05:37:58;;;;;;;12.57;7.72;;;;;;;;;;5063852;28;20482;-64
2021/09/01 05:40:25;;;;;;;17.15;8.48;;;;;;;;;;5070160;28;20127;-64
2021/09/01 05:42:52;;;;;;;12.90;7.90;;;;;;;;;;5063795;28;20166;-64
2021/09/01 05:45:19;;;;;;;14.00;8.40;;;;;;;;;;5061699;28;20044;-64
2021/09/01 05:47:45;;;;;;;12.38;7.10;;;;;;;;;;5063548;28;20049;-65
2021/09/01 05:50:12;;;;;;;14.13;7.72;;;;;;;;;;5066400;28;20074;-64
2021/09/01 05:52:39;;;;;;;15.23;8.43;;;;;;;;;;5054050;28;20040;-65
2021/09/01 05:55:10;;;;;;;10.98;6.10;;;;;;;;;;5068283;28;20076;-64
2021/09/01 05:57:37;;;;;;;9.68;5.65;;;;;;;;;;5065349;28;20057;-64
2021/09/01 06:00:04;;;;;;;16.90;8.23;;;;;;;;;;5060944;28;20048;-65
2021/09/01 06:02:42;;;;;;;17.35;7.50;;;;;;;;;;5056627;28;20048;-65
2021/09/01 06:05:09;;;;;;;14.05;7.75;;;;;;;;;;5064715;28;20111;-65
2021/09/01 06:07:38;;;;;;;13.45;7.57;;;;;;;;;;5066248;28;20536;-66
2021/09/01 06:10:04;;;;;;;15.88;6.90;;;;;;;;;;5064753;28;20155;-63
2021/09/01 06:12:31;;;;;;;15.52;8.25;;;;;;;;;;5064445;28;20534;-65
2021/09/01 06:14:58;;;;;;;15.82;7.72;;;;;;;;;;5067949;28;20079;-66
2021/09/01 06:17:24;;;;;;;14.90;7.70;;;;;;;;;;5069431;28;20113;-66
2021/09/01 06:19:50;;;;;;;12.98;7.93;;;;;;;;;;5069696;28;20068;-65
2021/09/01 06:22:17;;;;;;;16.33;8.45;;;;;;;;;;5062934;28;20045;-65
2021/09/01 06:24:43;;;;;;;15.73;8.40;;;;;;;;;;5067098;28;20049;-66
2021/09/01 06:27:09;;;;;;;13.38;8.20;;;;;;;;;;5064906;28;20072;-65
2021/09/01 06:29:37;;;;;;;16.50;6.90;;;;;;;;;;5068766;28;20052;-65
2021/09/01 06:32:03;;;;;;;15.95;7.93;;;;;;;;;;5070867;28;20056;-65
2021/09/01 06:34:30;;;;;;;12.20;6.32;;;;;;;;;;5064635;28;20068;-66
2021/09/01 06:36:56;;;;;;;18.33;7.28;;;;;;;;;;5067347;28;20051;-65
2021/09/01 06:39:23;;;;;;;13.48;6.97;;;;;;;;;;5068079;28;20041;-65
2021/09/01 06:41:49;;;;;;;13.48;7.13;;;;;;;;;;5065792;28;20076;-66
2021/09/01 06:44:15;;;;;;;12.02;7.00;;;;;;;;;;5061403;28;20094;-65
2021/09/01 06:46:42;;;;;;;13.55;6.78;;;;;;;;;;5064293;28;20090;-64
2021/09/01 06:49:08;;;;;;;12.52;6.40;;;;;;;;;;5068261;28;20490;-65
2021/09/01 06:51:35;;;;;;;15.15;6.55;;;;;;;;;;5064732;28;20132;-65
2021/09/01 06:54:01;;;;;;;12.52;7.18;;;;;;;;;;5058666;28;20045;-65
2021/09/01 06:56:28;;;;;;;11.50;7.10;;;;;;;;;;5062455;28;20057;-65
2021/09/01 06:58:54;;;;;;;13.43;7.10;;;;;;;;;;5068710;28;20051;-65
2021/09/01 07:01:20;;;;;;;11.95;7.07;;;;;;;;;;5065617;28;20044;-64
2021/09/01 07:03:47;;;;;;;13.88;6.93;;;;;;;;;;5068329;28;20083;-65
2021/09/01 07:06:13;;;;;;;12.23;6.78;;;;;;;;;;5066516;28;20126;-65
2021/09/01 07:08:39;;;;;;;12.00;6.28;;;;;;;;;;5063309;28;20045;-65
2021/09/01 07:11:06;;;;;;;9.10;5.57;;;;;;;;;;5059882;28;20114;-64
2021/09/01 07:13:32;;;;;;;9.73;5.82;;;;;;;;;;5054577;28;20171;-63
2021/09/01 07:15:58;;;;;;;11.30;5.75;;;;;;;;;;5071043;28;20506;-66
2021/09/01 07:18:25;;;;;;;9.57;5.72;;;;;;;;;;5060479;28;20411;-65
2021/09/01 07:20:51;;;;;;;11.85;5.50;;;;;;;;;;5058053;28;20414;-64
2021/09/01 07:23:17;;;;;;;7.65;4.28;;;;;;;;;;5058839;28;20132;-62
2021/09/01 07:25:44;;;;;;;9.95;5.60;;;;;;;;;;5053667;28;20056;-65
2021/09/01 07:28:10;;;;;;;9.52;5.10;;;;;;;;;;5057872;28;20057;-65
2021/09/01 07:30:37;;;;;;;13.43;6.53;;;;;;;;;;5058650;28;20465;-69
2021/09/01 07:33:03;;;;;;;10.15;4.57;;;;;;;;;;5061331;28;20469;-69
2021/09/01 07:35:29;;;;;;;11.40;4.85;;;;;;;;;;5066748;28;20045;-70
2021/09/01 07:37:56;;;;;;;10.90;6.25;;;;;;;;;;5056410;28;20041;-69
2021/09/01 07:40:23;;;;;;;10.32;4.97;;;;;;;;;;5056056;28;20191;-69
2021/09/01 07:42:50;;;;;;;10.07;4.30;;;;;;;;;;5058514;28;20045;-63
2021/09/01 07:45:17;;;;;;;6.32;3.00;;;;;;;;;;5058666;28;20111;-64
2021/09/01 07:47:50;;;;;;;8.85;4.65;;;;;;;;;;5058573;28;20048;-71
2021/09/01 07:50:16;;;;;;;8.85;3.97;;;;;;;;;;5058470;28;20048;-64
2021/09/01 07:52:43;;;;;;;8.88;4.47;;;;;;;;;;5054392;28;20044;-65
2021/09/01 07:55:10;;;;;;;6.80;3.90;;;;;;;;;;5069610;28;20072;-64
2021/09/01 07:57:36;;;;;;;6.63;3.72;;;;;;;;;;5059976;28;20529;-69
2021/09/01 08:00:04;;;;;;;8.45;3.92;;;;;;;;;;5063157;28;20141;-71
2021/09/01 08:02:31;;;;;;;9.57;4.15;;;;;;;;;;5058706;28;20075;-70
2021/09/01 08:04:57;;;;;;;6.30;3.38;;;;;;;;;;5057108;28;20519;-67
2021/09/01 08:07:23;;;;;;;7.50;4.00;;;;;;;;;;5055537;28;20507;-68
2021/09/01 08:09:50;;;;;;;8.68;4.28;;;;;;;;;;5058229;28;20045;-72
2021/09/01 08:12:16;;;;;;;8.75;4.57;;;;;;;;;;5063857;28;20119;-71
2021/09/01 08:14:42;;;;;;;10.98;4.78;;;;;;;;;;5065810;28;20045;-72
2021/09/01 08:17:09;;;;;;;10.65;4.90;;;;;;;;;;5067484;28;20128;-65
2021/09/01 08:19:36;;;;;;;11.77;4.60;;;;;;;;;;5054349;28;20045;-70
2021/09/01 08:22:02;;;;;;;9.00;4.72;;;;;;;;;;5057657;28;20041;-63
2021/09/01 08:24:29;;;;;;;8.48;3.88;;;;;;;;;;5060244;28;20048;-71
2021/09/01 08:26:55;;;;;;;10.35;4.47;;;;;;;;;;5068967;28;20102;-72
2021/09/01 08:29:21;;;;;;;9.60;3.70;;;;;;;;;;5068033;28;20047;-72
2021/09/01 08:31:48;;;;;;;7.05;3.90;;;;;;;;;;5054317;28;20463;-71
2021/09/01 08:34:14;;;;;;;9.43;4.57;;;;;;;;;;5056028;28;20052;-72
2021/09/01 08:36:40;;;;;;;7.45;4.25;;;;;;;;;;5057755;28;20135;-72
2021/09/01 08:39:07;;;;;;;7.57;4.15;;;;;;;;;;5057320;28;20076;-71
2021/09/01 08:41:37;;;;;;;7.68;3.20;;;;;;;;;;5057819;28;20044;-69
2021/09/01 08:44:03;;;;;;;7.43;4.05;;;;;;;;;;5055772;28;20398;-71
2021/09/01 08:46:32;;;;;;;14.05;4.45;;;;;;;;;;5061340;28;20052;-70
2021/09/01 08:49:00;;;;;;;8.98;3.83;;;;;;;;;;5066506;28;20043;-70
2021/09/01 08:51:26;;;;;;;8.50;4.00;;;;;;;;;;5065859;28;20548;-74
2021/09/01 08:53:56;;;;;;;8.82;4.20;;;;;;;;;;5063610;28;20079;-71
2021/09/01 08:56:22;;;;;;;7.40;4.13;;;;;;;;;;5057251;28;20388;-72
2021/09/01 08:58:48;;;;;;;10.07;4.53;;;;;;;;;;5053298;28;20049;-70
2021/09/01 09:01:33;;;;;;;11.13;4.15;;;;;;;;;;5056261;28;20048;-72
2021/09/01 09:04:00;;;;;;;8.25;4.55;;;;;;;;;;5056819;28;20099;-71
2021/09/01 09:06:42;;;;;;;7.25;4.03;;;;;;;;;;5064922;28;20122;-72
2021/09/01 09:09:11;;;;;;;7.28;3.80;;;;;;;;;;5061387;28;20064;-69
2021/09/01 09:11:38;;;;;;;7.32;4.28;;;;;;;;;;5055239;28;20130;-72
2021/09/01 09:14:21;;;;;;;6.63;3.65;;;;;;;;;;5068619;28;20059;-67
2021/09/01 09:16:59;;;;;;;10.70;4.68;;;;;;;;;;5053343;28;20063;-71
2021/09/01 09:19:44;;;;;;;7.22;3.80;;;;;;;;;;5054393;28;20449;-70
2021/09/01 09:22:11;;;;;;;8.50;4.30;;;;;;;;;;5055997;28;20139;-70
2021/09/01 09:24:38;;;;;;;9.45;3.75;;;;;;;;;;5061830;28;20131;-72
2021/09/01 09:27:07;;;;;;;5.53;3.58;;;;;;;;;;5061456;28;20041;-72
2021/09/01 09:29:33;;;;;;;12.15;3.80;;;;;;;;;;5056567;28;20131;-66
2021/09/01 09:32:12;;;;;;;6.38;3.33;;;;;;;;;;5066643;28;20055;-65
2021/09/01 09:34:42;;;;;;;5.95;3.78;;;;;;;;;;5083835;28;20060;-73
2021/09/01 09:37:10;;;;;;;10.68;5.28;;;;;;;;;;5056405;28;20091;-71
2021/09/01 09:39:46;;;;;;;11.38;4.65;;;;;;;;;;5056593;28;20498;-73
2021/09/01 09:42:14;;;;;;;6.28;3.67;;;;;;;;;;5056542;28;20073;-72
2021/09/01 09:44:41;;;;;;;7.25;3.78;;;;;;;;;;5056570;28;20045;-64
2021/09/01 09:47:07;;;;;;;6.53;3.80;;;;;;;;;;5055328;28;20045;-65
2021/09/01 09:49:34;;;;;;;8.68;3.72;;;;;;;;;;5053030;28;20060;-71
2021/09/01 09:52:01;;;;;;;8.77;3.92;;;;;;;;;;5056163;28;20511;-68
2021/09/01 09:54:28;;;;;;;6.55;4.05;;;;;;;;;;5057258;28;20045;-70
2021/09/01 09:57:15;;;;;;;6.95;4.32;;;;;;;;;;5057438;28;20098;-71
2021/09/01 09:59:44;;;;;;;7.25;3.92;;;;;;;;;;5057062;28;20048;-71
2021/09/01 10:02:10;;;;;;;12.32;4.35;;;;;;;;;;5060301;28;20067;-72
2021/09/01 10:04:37;;;;;;;8.35;3.90;;;;;;;;;;5067367;28;20049;-63
2021/09/01 10:07:04;;;;;;;6.60;3.78;;;;;;;;;;5056420;28;20387;-66
2021/09/01 10:09:30;;;;;;;7.22;3.65;;;;;;;;;;5064334;28;20125;-71
2021/09/01 10:11:58;;;;;;;7.72;3.55;;;;;;;;;;5062866;28;20484;-71
2021/09/01 10:14:24;;;;;;;6.43;3.80;;;;;;;;;;5059383;28;20529;-68
2021/09/01 10:17:04;;;;;;;5.55;3.17;;;;;;;;;;5068091;28;20099;-73
2021/09/01 10:19:31;;;;;;;6.25;3.42;;;;;;;;;;5066759;28;20048;-73
2021/09/01 10:22:00;;;;;;;7.88;3.30;;;;;;;;;;5056270;28;20041;-71
2021/09/01 10:24:36;;;;;;;6.10;3.47;;;;;;;;;;5056636;28;20041;-70
2021/09/01 10:27:03;;;;;;;5.90;3.28;;;;;;;;;;5056865;28;20546;-75
2021/09/01 10:29:49;;;;;;;7.18;3.65;;;;;;;;;;5058010;28;20074;-75
2021/09/01 10:32:23;;;;;;;5.60;3.08;;;;;;;;;;5056708;28;20064;-70
2021/09/01 10:34:49;;;;;;;6.72;3.80;;;;;;;;;;5052910;28;20067;-74
2021/09/01 10:37:39;;;;;;;5.05;3.20;;;;;;;;;;5070787;28;20506;-75
2021/09/01 10:40:10;;;;;;;6.95;3.55;;;;;;;;;;5053791;28;20132;-76
2021/09/01 10:42:38;;;;;;;6.38;2.60;;;;;;;;;;5056273;28;20124;-72
2021/09/01 10:45:06;;;;;;;5.07;2.92;;;;;;;;;;5056508;28;20052;-71
2021/09/01 10:47:53;;;;;;;6.38;2.95;;;;;;;;;;5056261;28;20048;-72
2021/09/01 10:50:29;;;;;;;8.63;2.78;;;;;;;;;;5063564;28;20057;-73
2021/09/01 10:53:05;;;;;;;7.45;3.80;;;;;;;;;;5055350;28;20037;-73
2021/09/01 10:55:32;;;;;;;4.22;2.67;;;;;;;;;;5068917;28;20083;-68
2021/09/01 10:58:17;;;;;;;6.72;2.35;;;;;;;;;;5056103;28;20524;-65
2021/09/01 11:00:44;;;;;;;4.50;2.55;;;;;;;;;;5057700;28;20513;-70
2021/09/01 11:03:11;;;;;;;4.28;2.53;;;;;;;;;;5063794;28;20403;-75
2021/09/01 11:05:37;;;;;;;5.13;2.58;;;;;;;;;;5068487;28;20097;-72
2021/09/01 11:08:04;;;;;;;5.70;2.95;;;;;;;;;;5058600;28;20410;-72
2021/09/01 11:10:30;;;;;;;5.00;2.58;;;;;;;;;;5057073;28;20621;-77
2021/09/01 11:13:00;;;;;;;4.63;2.83;;;;;;;;;;5059555;28;20055;-68
2021/09/01 11:15:27;;;;;;;4.05;2.20;;;;;;;;;;5059856;28;20087;-65
2021/09/01 11:18:08;;;;;;;3.90;2.40;;;;;;;;;;5059517;28;20056;-74
2021/09/01 11:20:35;;;;;;;6.18;2.17;;;;;;;;;;5059631;28;20048;-65
2021/09/01 11:23:02;;;;;;;6.43;2.65;;;;;;;;;;5058059;28;20044;-71
2021/09/01 11:25:32;;;;;;;5.22;2.85;;;;;;;;;;5072460;28;20106;-72
2021/09/01 11:27:58;;;;;;;5.60;2.60;;;;;;;;;;5072017;28;20252;-75
2021/09/01 11:30:32;;;;;;;4.97;2.58;;;;;;;;;;5061737;28;20135;-70
2021/09/01 11:32:58;;;;;;;1.93;1.53;;;;;;;;;;5059444;28;20052;-69
2021/09/01 11:35:25;;;;;;;4.55;2.50;;;;;;;;;;5059424;28;20389;-68
2021/09/01 11:38:09;;;;;;;6.13;2.90;;;;;;;;;;5056423;28;20482;-69
2021/09/01 11:40:35;;;;;;;3.78;2.20;;;;;;;;;;5055855;28;20071;-68
2021/09/01 11:43:02;;;;;;;4.78;2.38;;;;;;;;;;5059096;28;20049;-74
2021/09/01 11:45:28;;;;;;;4.75;2.40;;;;;;;;;;5058662;28;20048;-74
2021/09/01 11:47:59;;;;;;;5.05;2.67;;;;;;;;;;5059063;28;20071;-68
2021/09/01 11:50:26;;;;;;;5.40;2.63;;;;;;;;;;5063753;28;20043;-73
2021/09/01 11:52:55;;;;;;;4.45;2.60;;;;;;;;;;5056104;28;20052;-76
2021/09/01 11:55:25;;;;;;;5.22;2.33;;;;;;;;;;5056444;28;20075;-70
2021/09/01 11:57:52;;;;;;;3.17;2.22;;;;;;;;;;5069826;28;20127;-70
2021/09/01 12:00:19;;;;;;;6.90;1.98;;;;;;;;;;5061564;28;20045;-68
2021/09/01 12:02:49;;;;;;;4.40;2.17;;;;;;;;;;5058350;28;20506;-74
2021/09/01 12:05:27;;;;;;;3.95;1.90;;;;;;;;;;5056161;28;20131;-67
2021/09/01 12:07:54;;;;;;;5.68;2.13;;;;;;;;;;5056066;28;20120;-65
2021/09/01 12:10:20;;;;;;;4.05;2.13;;;;;;;;;;5069708;28;20051;-69
2021/09/01 12:12:46;;;;;;;4.47;2.13;;;;;;;;;;5067575;28;20138;-69
2021/09/01 12:15:14;;;;;;;2.38;1.63;;;;;;;;;;5062522;28;20047;-70
2021/09/01 12:17:41;;;;;;;4.95;1.90;;;;;;;;;;5058582;28;20052;-76
2021/09/01 12:20:11;;;;;;;2.78;1.92;;;;;;;;;;5057285;28;20048;-68
2021/09/01 12:22:42;;;;;;;3.70;1.67;;;;;;;;;;5054868;28;20506;-73
2021/09/01 12:25:21;;;;;;;2.22;1.35;;;;;;;;;;5057966;28;20049;-67
2021/09/01 12:27:58;;;;;;;3.30;1.65;;;;;;;;;;5068335;28;20129;-71
2021/09/01 12:30:28;;;;;;;3.83;1.50;;;;;;;;;;5060070;28;20045;-76
2021/09/01 12:33:02;;;;;;;4.85;1.63;;;;;;;;;;5067342;28;20044;-70
2021/09/01 12:35:31;;;;;;;5.93;1.75;;;;;;;;;;5067758;28;20046;-70
2021/09/01 12:38:00;;;;;;;2.85;1.50;;;;;;;;;;5055705;28;20060;-74
2021/09/01 12:40:28;;;;;;;5.43;1.92;;;;;;;;;;5054637;28;20047;-70
2021/09/01 12:42:59;;;;;;;4.47;1.65;;;;;;;;;;5071191;28;20051;-67
2021/09/01 12:45:25;;;;;;;4.03;1.60;;;;;;;;;;5067736;28;20068;-72
2021/09/01 12:47:56;;;;;;;4.78;2.05;;;;;;;;;;5064227;28;20477;-77
2021/09/01 12:50:42;;;;;;;4.20;1.80;;;;;;;;;;5057841;28;20097;-76
2021/09/01 12:53:20;;;;;;;3.33;1.50;;;;;;;;;;5056967;28;20051;-76
2021/09/01 12:55:47;;;;;;;3.03;1.40;;;;;;;;;;5054330;28;20044;-75
2021/09/01 12:58:13;;;;;;;4.82;1.90;;;;;;;;;;5056684;28;20447;-72
2021/09/01 13:00:40;;;;;;;4.07;1.40;;;;;;;;;;5057578;28;20498;-74
2021/09/01 13:03:06;;;;;;;2.63;1.35;;;;;;;;;;5057731;28;20413;-73
2021/09/01 13:05:33;;;;;;;3.58;1.33;;;;;;;;;;5057594;28;20045;-66
2021/09/01 13:08:00;;;;;;;3.20;1.40;;;;;;;;;;5055867;28;20044;-64
2021/09/01 13:10:26;;;;;;;2.78;1.40;;;;;;;;;;5055576;28;20049;-67
2021/09/01 13:12:53;;;;;;;2.55;1.10;;;;;;;;;;5065030;28;20076;-70
2021/09/01 13:15:20;;;;;;;3.38;1.33;;;;;;;;;;5063541;28;20462;-76
2021/09/01 13:17:47;;;;;;;3.03;1.02;;;;;;;;;;5067764;28;20055;-65
2021/09/01 13:20:14;;;;;;;4.10;1.38;;;;;;;;;;5069126;28;20497;-66
2021/09/01 13:22:41;;;;;;;2.38;1.30;;;;;;;;;;5066317;28;20123;-68
2021/09/01 13:25:08;;;;;;;3.97;1.73;;;;;;;;;;5060881;28;20612;-70
2021/09/01 13:27:35;;;;;;;3.00;1.20;;;;;;;;;;5066434;28;20127;-65
2021/09/01 13:30:02;;;;;;;6.82;2.00;;;;;;;;;;5056530;28;20041;-72
2021/09/01 13:32:29;;;;;;;3.72;1.25;;;;;;;;;;5063239;28;20032;-71
2021/09/01 13:34:55;;;;;;;4.63;1.58;;;;;;;;;;5063952;28;20075;-69
2021/09/01 13:37:22;;;;;;;2.70;1.20;;;;;;;;;;5065661;28;20055;-72
2021/09/01 13:39:48;;;;;;;4.30;1.48;;;;;;;;;;5058102;28;20166;-69
2021/09/01 13:42:14;;;;;;;2.90;1.30;;;;;;;;;;5060889;28;20079;-62
2021/09/01 13:44:41;;;;;;;5.10;1.30;;;;;;;;;;5063052;28;20056;-69
2021/09/01 13:47:07;;;;;;;2.67;1.23;;;;;;;;;;5055385;28;20455;-70
2021/09/01 13:49:34;;;;;;;3.50;1.27;;;;;;;;;;5061539;28;20080;-67
2021/09/01 13:52:00;;;;;;;3.25;1.30;;;;;;;;;;5064985;28;20055;-73
2021/09/01 13:54:26;;;;;;;3.65;1.40;;;;;;;;;;5060040;28;20198;-70
2021/09/01 13:56:53;;;;;;;2.90;1.15;;;;;;;;;;5065964;28;20149;-70
2021/09/01 13:59:20;;;;;;;2.30;1.20;;;;;;;;;;5060890;28;20048;-64
2021/09/01 14:01:47;;;;;;;2.90;1.40;;;;;;;;;;5060360;28;20068;-67
2021/09/01 14:04:14;;;;;;;4.45;1.10;;;;;;;;;;5065485;28;20076;-64
2021/09/01 14:06:40;;;;;;;2.20;1.30;;;;;;;;;;5064729;28;20041;-62
2021/09/01 14:09:08;;;;;;;2.70;1.10;;;;;;;;;;5064222;28;20041;-70
2021/09/01 14:11:35;;;;;;;2.78;1.33;;;;;;;;;;5064355;28;20517;-70
2021/09/01 14:14:01;;;;;;;2.75;0.98;;;;;;;;;;5064829;28;20048;-62
2021/09/01 14:16:28;;;;;;;1.85;0.98;;;;;;;;;;5068658;28;20110;-63
2021/09/01 14:18:54;;;;;;;2.08;1.00;;;;;;;;;;5063676;28;20187;-68
2021/09/01 14:21:21;;;;;;;2.47;0.98;;;;;;;;;;5063791;28;20049;-62
2021/09/01 14:23:47;;;;;;;3.10;0.88;;;;;;;;;;5062583;28;20041;-67
2021/09/01 14:26:15;;;;;;;1.92;1.05;;;;;;;;;;5066214;28;20127;-63
2021/09/01 14:28:42;;;;;;;2.30;1.15;;;;;;;;;;5062454;28;20102;-66
2021/09/01 14:31:09;;;;;;;2.20;1.20;;;;;;;;;;5065680;28;20072;-64
2021/09/01 14:33:36;;;;;;;4.22;1.25;;;;;;;;;;5064807;28;20080;-68
2021/09/01 14:36:02;;;;;;;2.28;0.90;;;;;;;;;;5066570;28;20048;-64
2021/09/01 14:38:29;;;;;;;2.03;0.80;;;;;;;;;;5069059;28;20047;-62
2021/09/01 14:40:55;;;;;;;1.65;0.93;;;;;;;;;;5064145;28;20079;-61
2021/09/01 14:43:22;;;;;;;2.28;1.10;;;;;;;;;;5063163;28;20041;-62